This is the latest recevied weather packets stored in our database for station/object DJ9MA-10. If no packets are shown the sender has not sent any weather packets the latest 10 day(s).
| Time | Temp. | Humidity | Pressure | Rain* | Wind** | Luminosity | Snow |
|---|---|---|---|---|---|---|---|
| 1777721346 | 26.11° C | 41% | 968.9 hPa | - | - | - | - |
| 1777720445 | 27.22° C | 38% | 968.9 hPa | - | - | - | - |
| 1777719545 | 27.22° C | 39% | 969.1 hPa | - | - | - | - |
| 1777718645 | 26.11° C | 39% | 969.2 hPa | - | - | - | - |
| 1777717745 | 27.22° C | 38% | 969.4 hPa | - | - | - | - |
| 1777716845 | 29.44° C | 35% | 969.7 hPa | - | - | - | - |
| 1777715945 | 31.11° C | 33% | 969.7 hPa | - | - | - | - |
| 1777715045 | 30° C | 34% | 969.8 hPa | - | - | - | - |
| 1777714145 | 34.44° C | 30% | 970 hPa | - | - | - | - |
| 1777713245 | 37.22° C | 28% | 970 hPa | - | - | - | - |
| 1777712345 | 37.78° C | 29% | 970.2 hPa | - | - | - | - |
| 1777711445 | 37.78° C | 28% | 970.3 hPa | - | - | - | - |
| 1777710545 | 36.67° C | 28% | 970.3 hPa | - | - | - | - |
| 1777709645 | 36.67° C | 30% | 970.3 hPa | - | - | - | - |
| 1777708745 | 37.78° C | 31% | 970.5 hPa | - | - | - | - |
| 1777707845 | 34.44° C | 36% | 970.7 hPa | - | - | - | - |
| 1777706945 | 33.33° C | 36% | 970.9 hPa | - | - | - | - |
| 1777706045 | 32.22° C | 39% | 970.8 hPa | - | - | - | - |
| 1777705144 | 30° C | 41% | 971 hPa | - | - | - | - |
| 1777704244 | 29.44° C | 42% | 971.1 hPa | - | - | - | - |
| 1777703344 | 30° C | 45% | 971.1 hPa | - | - | - | - |
| 1777702444 | 25° C | 60% | 971.1 hPa | - | - | - | - |
| 1777701544 | 18.33° C | 100% | 971.2 hPa | - | - | - | - |
| 1777700644 | 15.56° C | 100% | 971.3 hPa | - | - | - | - |
| 1777699744 | 13.89° C | 100% | 971.1 hPa | - | - | - | - |
* Rain since midnight (hover to see other rain measurements)
** Current wind speed in m/s (hover to see current wind gust speed)